sensor_id;sensor_type;location;lat;lon;timestamp;P1;durP1;ratioP1;P2;durP2;ratioP2
74293;SDS011;64044;59.904;10.738;2023-02-13T00:02:14;3.78;;;1.90;;
74293;SDS011;64044;59.904;10.738;2023-02-13T00:04:40;7.38;;;2.10;;
74293;SDS011;64044;59.904;10.738;2023-02-13T00:07:07;5.38;;;2.03;;
74293;SDS011;64044;59.904;10.738;2023-02-13T00:09:35;7.13;;;3.17;;
74293;SDS011;64044;59.904;10.738;2023-02-13T00:12:01;3.80;;;2.17;;
74293;SDS011;64044;59.904;10.738;2023-02-13T00:14:27;3.55;;;2.10;;
74293;SDS011;64044;59.904;10.738;2023-02-13T00:16:53;4.35;;;2.25;;
74293;SDS011;64044;59.904;10.738;2023-02-13T00:19:19;5.63;;;2.25;;
74293;SDS011;64044;59.904;10.738;2023-02-13T00:21:44;5.05;;;2.50;;
74293;SDS011;64044;59.904;10.738;2023-02-13T00:24:10;2.65;;;1.60;;
74293;SDS011;64044;59.904;10.738;2023-02-13T00:26:36;3.83;;;1.80;;
74293;SDS011;64044;59.904;10.738;2023-02-13T00:29:04;2.80;;;1.10;;
74293;SDS011;64044;59.904;10.738;2023-02-13T00:31:29;2.30;;;1.23;;
74293;SDS011;64044;59.904;10.738;2023-02-13T00:33:55;2.47;;;1.25;;
74293;SDS011;64044;59.904;10.738;2023-02-13T00:36:21;2.33;;;1.23;;
74293;SDS011;64044;59.904;10.738;2023-02-13T00:38:48;3.05;;;1.58;;
74293;SDS011;64044;59.904;10.738;2023-02-13T00:41:14;1.83;;;1.00;;
74293;SDS011;64044;59.904;10.738;2023-02-13T00:43:42;6.88;;;1.95;;
74293;SDS011;64044;59.904;10.738;2023-02-13T00:46:09;3.78;;;1.20;;
74293;SDS011;64044;59.904;10.738;2023-02-13T00:48:35;2.72;;;1.25;;
74293;SDS011;64044;59.904;10.738;2023-02-13T00:51:01;4.35;;;1.80;;
74293;SDS011;64044;59.904;10.738;2023-02-13T00:53:28;2.15;;;1.17;;
74293;SDS011;64044;59.904;10.738;2023-02-13T00:55:54;2.70;;;1.08;;
74293;SDS011;64044;59.904;10.738;2023-02-13T00:58:19;2.10;;;0.73;;
74293;SDS011;64044;59.904;10.738;2023-02-13T01:00:46;2.97;;;1.27;;
74293;SDS011;64044;59.904;10.738;2023-02-13T01:03:12;0.93;;;0.57;;
74293;SDS011;64044;59.904;10.738;2023-02-13T01:05:42;1.27;;;0.63;;
74293;SDS011;64044;59.904;10.738;2023-02-13T01:08:09;1.75;;;1.08;;
74293;SDS011;64044;59.904;10.738;2023-02-13T01:10:36;0.60;;;0.50;;
74293;SDS011;64044;59.904;10.738;2023-02-13T01:13:03;1.90;;;0.70;;
74293;SDS011;64044;59.904;10.738;2023-02-13T01:15:29;1.73;;;0.88;;
74293;SDS011;64044;59.904;10.738;2023-02-13T01:17:56;0.80;;;0.50;;
74293;SDS011;64044;59.904;10.738;2023-02-13T01:20:23;1.20;;;0.70;;
74293;SDS011;64044;59.904;10.738;2023-02-13T01:22:49;1.20;;;0.82;;
74293;SDS011;64044;59.904;10.738;2023-02-13T01:25:15;2.28;;;1.15;;
74293;SDS011;64044;59.904;10.738;2023-02-13T01:27:41;2.45;;;1.15;;
74293;SDS011;64044;59.904;10.738;2023-02-13T01:30:08;1.73;;;0.98;;
74293;SDS011;64044;59.904;10.738;2023-02-13T01:32:40;2.08;;;1.30;;
74293;SDS011;64044;59.904;10.738;2023-02-13T01:35:08;2.13;;;1.40;;
74293;SDS011;64044;59.904;10.738;2023-02-13T01:37:34;3.05;;;1.80;;
74293;SDS011;64044;59.904;10.738;2023-02-13T01:40:01;2.92;;;1.67;;
74293;SDS011;64044;59.904;10.738;2023-02-13T01:42:29;3.47;;;1.33;;
74293;SDS011;64044;59.904;10.738;2023-02-13T01:44:59;2.67;;;1.58;;
74293;SDS011;64044;59.904;10.738;2023-02-13T01:50:12;1.35;;;1.02;;
74293;SDS011;64044;59.904;10.738;2023-02-13T01:52:55;3.42;;;1.40;;
74293;SDS011;64044;59.904;10.738;2023-02-13T01:55:28;1.75;;;0.93;;
74293;SDS011;64044;59.904;10.738;2023-02-13T01:57:57;2.55;;;1.10;;
74293;SDS011;64044;59.904;10.738;2023-02-13T02:00:33;2.35;;;0.70;;
74293;SDS011;64044;59.904;10.738;2023-02-13T02:03:12;2.80;;;0.90;;
74293;SDS011;64044;59.904;10.738;2023-02-13T02:05:42;1.90;;;1.00;;
74293;SDS011;64044;59.904;10.738;2023-02-13T02:08:08;1.40;;;0.88;;
74293;SDS011;64044;59.904;10.738;2023-02-13T02:10:38;1.55;;;0.80;;
74293;SDS011;64044;59.904;10.738;2023-02-13T02:15:32;1.92;;;0.70;;
74293;SDS011;64044;59.904;10.738;2023-02-13T02:17:58;1.35;;;0.80;;
74293;SDS011;64044;59.904;10.738;2023-02-13T02:28:38;1.20;;;0.50;;
74293;SDS011;64044;59.904;10.738;2023-02-13T02:56:28;2.70;;;0.50;;
74293;SDS011;64044;59.904;10.738;2023-02-13T02:59:03;2.85;;;0.60;;
74293;SDS011;64044;59.904;10.738;2023-02-13T03:01:54;0.50;;;0.25;;
74293;SDS011;64044;59.904;10.738;2023-02-13T03:04:41;0.80;;;0.40;;
74293;SDS011;64044;59.904;10.738;2023-02-13T03:07:29;3.47;;;0.88;;
74293;SDS011;64044;59.904;10.738;2023-02-13T03:09:59;1.83;;;0.50;;
74293;SDS011;64044;59.904;10.738;2023-02-13T03:12:50;0.77;;;0.50;;
74293;SDS011;64044;59.904;10.738;2023-02-13T03:15:41;0.88;;;0.50;;
74293;SDS011;64044;59.904;10.738;2023-02-13T03:18:28;1.05;;;0.65;;
74293;SDS011;64044;59.904;10.738;2023-02-13T03:21:58;1.58;;;0.70;;
74293;SDS011;64044;59.904;10.738;2023-02-13T03:42:26;2.28;;;0.43;;
74293;SDS011;64044;59.904;10.738;2023-02-13T03:45:02;1.55;;;0.40;;
74293;SDS011;64044;59.904;10.738;2023-02-13T03:48:02;2.17;;;0.73;;
74293;SDS011;64044;59.904;10.738;2023-02-13T03:50:35;0.75;;;0.45;;
74293;SDS011;64044;59.904;10.738;2023-02-13T03:53:07;1.65;;;0.43;;
74293;SDS011;64044;59.904;10.738;2023-02-13T03:55:36;0.68;;;0.40;;
74293;SDS011;64044;59.904;10.738;2023-02-13T03:58:31;1.33;;;0.38;;
74293;SDS011;64044;59.904;10.738;2023-02-13T04:01:24;1.95;;;0.55;;
74293;SDS011;64044;59.904;10.738;2023-02-13T04:09:11;1.20;;;0.50;;
74293;SDS011;64044;59.904;10.738;2023-02-13T04:15:11;0.75;;;0.45;;
74293;SDS011;64044;59.904;10.738;2023-02-13T04:17:26;1.85;;;0.60;;
74293;SDS011;64044;59.904;10.738;2023-02-13T04:19:57;0.90;;;0.52;;
74293;SDS011;64044;59.904;10.738;2023-02-13T04:22:23;0.98;;;0.40;;
74293;SDS011;64044;59.904;10.738;2023-02-13T04:24:48;1.33;;;0.60;;
74293;SDS011;64044;59.904;10.738;2023-02-13T04:27:15;1.50;;;0.60;;
74293;SDS011;64044;59.904;10.738;2023-02-13T04:29:42;1.27;;;0.50;;
74293;SDS011;64044;59.904;10.738;2023-02-13T04:32:11;1.42;;;0.82;;
74293;SDS011;64044;59.904;10.738;2023-02-13T04:34:38;0.93;;;0.50;;
74293;SDS011;64044;59.904;10.738;2023-02-13T04:37:03;2.75;;;0.68;;
74293;SDS011;64044;59.904;10.738;2023-02-13T04:39:29;1.58;;;0.73;;
74293;SDS011;64044;59.904;10.738;2023-02-13T04:41:55;1.80;;;0.90;;
74293;SDS011;64044;59.904;10.738;2023-02-13T04:44:21;2.28;;;0.68;;
74293;SDS011;64044;59.904;10.738;2023-02-13T04:46:46;2.63;;;0.68;;
74293;SDS011;64044;59.904;10.738;2023-02-13T04:49:12;2.30;;;0.70;;
74293;SDS011;64044;59.904;10.738;2023-02-13T04:51:38;4.03;;;0.85;;
74293;SDS011;64044;59.904;10.738;2023-02-13T04:54:03;4.78;;;1.00;;
74293;SDS011;64044;59.904;10.738;2023-02-13T04:56:29;3.33;;;0.82;;
74293;SDS011;64044;59.904;10.738;2023-02-13T04:58:55;3.60;;;0.50;;
74293;SDS011;64044;59.904;10.738;2023-02-13T05:01:20;1.50;;;0.77;;
74293;SDS011;64044;59.904;10.738;2023-02-13T05:03:46;3.33;;;1.02;;
74293;SDS011;64044;59.904;10.738;2023-02-13T05:06:13;0.88;;;0.70;;
74293;SDS011;64044;59.904;10.738;2023-02-13T05:08:39;3.88;;;1.10;;
74293;SDS011;64044;59.904;10.738;2023-02-13T05:11:05;0.95;;;0.70;;
74293;SDS011;64044;59.904;10.738;2023-02-13T05:13:31;3.95;;;1.30;;
74293;SDS011;64044;59.904;10.738;2023-02-13T05:15:57;2.45;;;0.68;;
74293;SDS011;64044;59.904;10.738;2023-02-13T05:18:23;2.42;;;0.90;;
74293;SDS011;64044;59.904;10.738;2023-02-13T05:20:48;0.73;;;0.50;;
74293;SDS011;64044;59.904;10.738;2023-02-13T05:23:34;1.23;;;0.57;;
74293;SDS011;64044;59.904;10.738;2023-02-13T05:26:00;4.72;;;1.10;;
74293;SDS011;64044;59.904;10.738;2023-02-13T05:28:26;5.18;;;1.40;;
74293;SDS011;64044;59.904;10.738;2023-02-13T05:31:10;1.92;;;1.05;;
74293;SDS011;64044;59.904;10.738;2023-02-13T05:33:37;2.30;;;1.17;;
74293;SDS011;64044;59.904;10.738;2023-02-13T05:36:02;6.63;;;1.20;;
74293;SDS011;64044;59.904;10.738;2023-02-13T05:38:28;4.50;;;1.45;;
74293;SDS011;64044;59.904;10.738;2023-02-13T05:40:54;2.75;;;1.17;;
74293;SDS011;64044;59.904;10.738;2023-02-13T05:43:22;4.20;;;1.33;;
74293;SDS011;64044;59.904;10.738;2023-02-13T05:45:47;4.68;;;1.52;;
74293;SDS011;64044;59.904;10.738;2023-02-13T05:48:13;3.85;;;1.63;;
74293;SDS011;64044;59.904;10.738;2023-02-13T05:50:39;4.50;;;1.70;;
74293;SDS011;64044;59.904;10.738;2023-02-13T05:53:05;3.33;;;1.45;;
74293;SDS011;64044;59.904;10.738;2023-02-13T05:55:30;2.83;;;1.42;;
74293;SDS011;64044;59.904;10.738;2023-02-13T05:57:56;4.65;;;1.60;;
74293;SDS011;64044;59.904;10.738;2023-02-13T06:00:22;5.22;;;1.75;;
74293;SDS011;64044;59.904;10.738;2023-02-13T06:02:48;5.32;;;1.65;;
74293;SDS011;64044;59.904;10.738;2023-02-13T06:05:14;2.47;;;1.58;;
74293;SDS011;64044;59.904;10.738;2023-02-13T06:07:40;3.70;;;1.33;;
74293;SDS011;64044;59.904;10.738;2023-02-13T06:10:06;3.45;;;1.30;;
74293;SDS011;64044;59.904;10.738;2023-02-13T06:12:32;1.67;;;1.23;;
74293;SDS011;64044;59.904;10.738;2023-02-13T06:14:58;3.67;;;1.10;;
74293;SDS011;64044;59.904;10.738;2023-02-13T06:17:24;4.40;;;1.00;;
74293;SDS011;64044;59.904;10.738;2023-02-13T06:19:49;3.58;;;1.35;;
74293;SDS011;64044;59.904;10.738;2023-02-13T06:22:15;5.10;;;1.35;;
74293;SDS011;64044;59.904;10.738;2023-02-13T06:24:41;6.93;;;1.92;;
74293;SDS011;64044;59.904;10.738;2023-02-13T06:27:06;5.47;;;2.13;;
74293;SDS011;64044;59.904;10.738;2023-02-13T06:29:32;5.05;;;2.10;;
74293;SDS011;64044;59.904;10.738;2023-02-13T06:31:58;6.38;;;1.90;;
74293;SDS011;64044;59.904;10.738;2023-02-13T06:34:23;2.83;;;1.42;;
74293;SDS011;64044;59.904;10.738;2023-02-13T06:36:49;2.63;;;1.30;;
74293;SDS011;64044;59.904;10.738;2023-02-13T06:39:15;3.35;;;1.40;;
74293;SDS011;64044;59.904;10.738;2023-02-13T06:41:40;2.60;;;1.48;;
74293;SDS011;64044;59.904;10.738;2023-02-13T06:44:06;3.22;;;1.50;;
74293;SDS011;64044;59.904;10.738;2023-02-13T06:46:32;3.75;;;1.77;;
74293;SDS011;64044;59.904;10.738;2023-02-13T06:48:58;2.97;;;1.60;;
74293;SDS011;64044;59.904;10.738;2023-02-13T06:51:23;7.85;;;1.65;;
74293;SDS011;64044;59.904;10.738;2023-02-13T06:53:49;6.70;;;2.15;;
74293;SDS011;64044;59.904;10.738;2023-02-13T06:56:15;8.55;;;2.13;;
74293;SDS011;64044;59.904;10.738;2023-02-13T06:58:40;6.10;;;2.08;;
74293;SDS011;64044;59.904;10.738;2023-02-13T07:01:06;3.00;;;1.40;;
74293;SDS011;64044;59.904;10.738;2023-02-13T07:03:32;5.50;;;1.83;;
74293;SDS011;64044;59.904;10.738;2023-02-13T07:05:57;4.05;;;1.80;;
74293;SDS011;64044;59.904;10.738;2023-02-13T07:08:23;6.35;;;2.10;;
74293;SDS011;64044;59.904;10.738;2023-02-13T07:10:49;5.10;;;2.35;;
74293;SDS011;64044;59.904;10.738;2023-02-13T07:13:15;3.88;;;1.83;;
74293;SDS011;64044;59.904;10.738;2023-02-13T07:15:40;2.65;;;1.42;;
74293;SDS011;64044;59.904;10.738;2023-02-13T07:18:06;4.65;;;1.90;;
74293;SDS011;64044;59.904;10.738;2023-02-13T07:20:32;4.18;;;2.17;;
74293;SDS011;64044;59.904;10.738;2023-02-13T07:23:02;3.88;;;1.95;;
74293;SDS011;64044;59.904;10.738;2023-02-13T07:25:29;3.88;;;1.70;;
74293;SDS011;64044;59.904;10.738;2023-02-13T07:27:59;2.83;;;1.40;;
74293;SDS011;64044;59.904;10.738;2023-02-13T07:30:26;7.28;;;1.63;;
74293;SDS011;64044;59.904;10.738;2023-02-13T07:32:52;7.00;;;1.73;;
74293;SDS011;64044;59.904;10.738;2023-02-13T07:35:18;5.00;;;2.03;;
74293;SDS011;64044;59.904;10.738;2023-02-13T07:37:44;4.18;;;2.30;;
74293;SDS011;64044;59.904;10.738;2023-02-13T07:40:09;6.00;;;2.58;;
74293;SDS011;64044;59.904;10.738;2023-02-13T07:42:35;9.00;;;2.85;;
74293;SDS011;64044;59.904;10.738;2023-02-13T07:45:01;9.18;;;2.85;;
74293;SDS011;64044;59.904;10.738;2023-02-13T07:47:29;10.45;;;2.90;;
74293;SDS011;64044;59.904;10.738;2023-02-13T07:49:55;8.93;;;2.70;;
74293;SDS011;64044;59.904;10.738;2023-02-13T07:52:20;5.50;;;2.45;;
74293;SDS011;64044;59.904;10.738;2023-02-13T07:54:46;8.38;;;2.90;;
74293;SDS011;64044;59.904;10.738;2023-02-13T07:57:13;11.48;;;3.30;;
74293;SDS011;64044;59.904;10.738;2023-02-13T07:59:41;6.35;;;3.03;;
74293;SDS011;64044;59.904;10.738;2023-02-13T08:02:14;9.55;;;3.50;;
74293;SDS011;64044;59.904;10.738;2023-02-13T08:04:40;9.02;;;2.55;;
74293;SDS011;64044;59.904;10.738;2023-02-13T08:07:10;5.65;;;2.97;;
74293;SDS011;64044;59.904;10.738;2023-02-13T08:09:36;5.82;;;3.13;;
74293;SDS011;64044;59.904;10.738;2023-02-13T08:12:20;10.02;;;3.80;;
74293;SDS011;64044;59.904;10.738;2023-02-13T08:14:46;10.35;;;3.20;;
74293;SDS011;64044;59.904;10.738;2023-02-13T08:17:12;7.88;;;3.53;;
74293;SDS011;64044;59.904;10.738;2023-02-13T08:19:37;13.38;;;3.70;;
74293;SDS011;64044;59.904;10.738;2023-02-13T08:22:03;7.47;;;3.97;;
74293;SDS011;64044;59.904;10.738;2023-02-13T08:24:29;10.85;;;3.65;;
74293;SDS011;64044;59.904;10.738;2023-02-13T08:26:55;9.93;;;3.33;;
74293;SDS011;64044;59.904;10.738;2023-02-13T08:29:20;8.50;;;2.83;;
74293;SDS011;64044;59.904;10.738;2023-02-13T08:31:46;10.43;;;3.00;;
74293;SDS011;64044;59.904;10.738;2023-02-13T08:34:12;6.90;;;2.58;;
74293;SDS011;64044;59.904;10.738;2023-02-13T08:36:37;9.32;;;3.03;;
74293;SDS011;64044;59.904;10.738;2023-02-13T08:39:03;11.63;;;3.33;;
74293;SDS011;64044;59.904;10.738;2023-02-13T08:41:29;8.18;;;2.78;;
74293;SDS011;64044;59.904;10.738;2023-02-13T08:43:55;8.77;;;2.85;;
74293;SDS011;64044;59.904;10.738;2023-02-13T08:46:46;7.80;;;3.50;;
74293;SDS011;64044;59.904;10.738;2023-02-13T08:49:11;8.80;;;3.25;;
74293;SDS011;64044;59.904;10.738;2023-02-13T08:51:37;9.35;;;3.20;;
74293;SDS011;64044;59.904;10.738;2023-02-13T08:54:03;11.18;;;3.88;;
74293;SDS011;64044;59.904;10.738;2023-02-13T08:56:28;12.00;;;3.22;;
74293;SDS011;64044;59.904;10.738;2023-02-13T08:58:54;11.80;;;3.28;;
74293;SDS011;64044;59.904;10.738;2023-02-13T09:01:20;9.60;;;4.32;;
74293;SDS011;64044;59.904;10.738;2023-02-13T09:03:48;14.63;;;3.35;;
74293;SDS011;64044;59.904;10.738;2023-02-13T09:06:14;7.38;;;2.65;;
74293;SDS011;64044;59.904;10.738;2023-02-13T09:08:39;6.00;;;2.95;;
74293;SDS011;64044;59.904;10.738;2023-02-13T09:11:05;5.22;;;2.97;;
74293;SDS011;64044;59.904;10.738;2023-02-13T09:13:31;16.88;;;3.13;;
74293;SDS011;64044;59.904;10.738;2023-02-13T09:16:04;6.60;;;2.83;;
74293;SDS011;64044;59.904;10.738;2023-02-13T09:18:31;7.38;;;3.15;;
74293;SDS011;64044;59.904;10.738;2023-02-13T09:21:02;15.05;;;3.15;;
74293;SDS011;64044;59.904;10.738;2023-02-13T09:26:02;6.47;;;2.47;;
74293;SDS011;64044;59.904;10.738;2023-02-13T09:30:56;8.35;;;2.70;;
74293;SDS011;64044;59.904;10.738;2023-02-13T09:33:22;8.52;;;3.55;;
74293;SDS011;64044;59.904;10.738;2023-02-13T09:35:49;5.95;;;2.88;;
74293;SDS011;64044;59.904;10.738;2023-02-13T09:38:15;8.88;;;3.28;;
74293;SDS011;64044;59.904;10.738;2023-02-13T09:46:17;8.32;;;2.85;;
74293;SDS011;64044;59.904;10.738;2023-02-13T09:48:55;8.00;;;3.40;;
74293;SDS011;64044;59.904;10.738;2023-02-13T09:51:23;14.80;;;3.97;;
74293;SDS011;64044;59.904;10.738;2023-02-13T09:53:55;14.00;;;3.47;;
74293;SDS011;64044;59.904;10.738;2023-02-13T10:13:35;9.35;;;2.70;;
74293;SDS011;64044;59.904;10.738;2023-02-13T10:18:56;7.07;;;2.30;;
74293;SDS011;64044;59.904;10.738;2023-02-13T10:21:27;5.40;;;2.15;;
74293;SDS011;64044;59.904;10.738;2023-02-13T10:23:58;6.75;;;2.88;;
74293;SDS011;64044;59.904;10.738;2023-02-13T10:26:37;5.93;;;2.80;;
74293;SDS011;64044;59.904;10.738;2023-02-13T10:29:32;7.53;;;2.67;;
74293;SDS011;64044;59.904;10.738;2023-02-13T10:32:29;6.35;;;2.55;;
74293;SDS011;64044;59.904;10.738;2023-02-13T10:34:59;6.68;;;2.33;;
74293;SDS011;64044;59.904;10.738;2023-02-13T10:37:27;7.35;;;2.53;;
74293;SDS011;64044;59.904;10.738;2023-02-13T10:39:53;5.57;;;2.20;;
74293;SDS011;64044;59.904;10.738;2023-02-13T11:04:13;2.25;;;1.10;;
74293;SDS011;64044;59.904;10.738;2023-02-13T11:07:03;3.40;;;1.60;;
74293;SDS011;64044;59.904;10.738;2023-02-13T11:09:31;3.13;;;1.52;;
74293;SDS011;64044;59.904;10.738;2023-02-13T11:14:53;3.35;;;1.52;;
74293;SDS011;64044;59.904;10.738;2023-02-13T11:17:24;3.03;;;1.33;;
74293;SDS011;64044;59.904;10.738;2023-02-13T11:19:56;3.38;;;1.85;;
74293;SDS011;64044;59.904;10.738;2023-02-13T11:24:55;6.70;;;2.30;;
74293;SDS011;64044;59.904;10.738;2023-02-13T11:27:31;4.57;;;2.03;;
74293;SDS011;64044;59.904;10.738;2023-02-13T11:33:00;3.85;;;1.92;;
74293;SDS011;64044;59.904;10.738;2023-02-13T11:35:47;5.15;;;1.85;;
74293;SDS011;64044;59.904;10.738;2023-02-13T11:40:48;7.43;;;2.00;;
74293;SDS011;64044;59.904;10.738;2023-02-13T11:43:30;4.00;;;1.80;;
74293;SDS011;64044;59.904;10.738;2023-02-13T11:48:34;5.78;;;1.80;;
74293;SDS011;64044;59.904;10.738;2023-02-13T11:51:00;2.38;;;0.98;;
74293;SDS011;64044;59.904;10.738;2023-02-13T11:53:28;3.38;;;0.85;;
74293;SDS011;64044;59.904;10.738;2023-02-13T11:56:10;2.85;;;1.27;;
74293;SDS011;64044;59.904;10.738;2023-02-13T11:58:38;3.00;;;1.65;;
74293;SDS011;64044;59.904;10.738;2023-02-13T12:03:36;3.85;;;1.10;;
74293;SDS011;64044;59.904;10.738;2023-02-13T12:06:04;2.17;;;1.38;;
74293;SDS011;64044;59.904;10.738;2023-02-13T12:08:30;1.92;;;1.20;;
74293;SDS011;64044;59.904;10.738;2023-02-13T12:10:58;3.00;;;1.98;;
74293;SDS011;64044;59.904;10.738;2023-02-13T12:13:32;1.85;;;1.15;;
74293;SDS011;64044;59.904;10.738;2023-02-13T12:16:04;7.93;;;1.52;;
74293;SDS011;64044;59.904;10.738;2023-02-13T12:18:54;2.00;;;0.85;;
74293;SDS011;64044;59.904;10.738;2023-02-13T12:21:29;5.22;;;1.30;;
74293;SDS011;64044;59.904;10.738;2023-02-13T12:24:02;1.85;;;1.13;;
74293;SDS011;64044;59.904;10.738;2023-02-13T12:26:52;2.53;;;1.20;;
74293;SDS011;64044;59.904;10.738;2023-02-13T12:49:40;2.97;;;1.38;;
74293;SDS011;64044;59.904;10.738;2023-02-13T12:58:15;2.95;;;1.00;;
74293;SDS011;64044;59.904;10.738;2023-02-13T13:01:15;1.58;;;1.00;;
74293;SDS011;64044;59.904;10.738;2023-02-13T13:03:45;1.58;;;1.00;;
74293;SDS011;64044;59.904;10.738;2023-02-13T13:10:20;1.75;;;0.90;;
74293;SDS011;64044;59.904;10.738;2023-02-13T13:23:20;2.90;;;1.35;;
74293;SDS011;64044;59.904;10.738;2023-02-13T13:28:41;2.83;;;2.00;;
74293;SDS011;64044;59.904;10.738;2023-02-13T13:31:10;1.60;;;1.20;;
74293;SDS011;64044;59.904;10.738;2023-02-13T13:33:42;4.20;;;1.40;;
74293;SDS011;64044;59.904;10.738;2023-02-13T13:49:57;2.35;;;1.27;;
74293;SDS011;64044;59.904;10.738;2023-02-13T13:52:26;3.72;;;1.52;;
74293;SDS011;64044;59.904;10.738;2023-02-13T13:54:54;1.67;;;1.13;;
74293;SDS011;64044;59.904;10.738;2023-02-13T13:57:23;2.60;;;1.23;;
74293;SDS011;64044;59.904;10.738;2023-02-13T13:59:56;1.73;;;0.95;;
74293;SDS011;64044;59.904;10.738;2023-02-13T14:02:26;2.28;;;1.00;;
74293;SDS011;64044;59.904;10.738;2023-02-13T14:07:41;3.53;;;1.13;;
74293;SDS011;64044;59.904;10.738;2023-02-13T14:12:59;1.88;;;1.05;;
74293;SDS011;64044;59.904;10.738;2023-02-13T14:20:36;2.88;;;1.10;;
74293;SDS011;64044;59.904;10.738;2023-02-13T14:23:18;1.92;;;1.33;;
74293;SDS011;64044;59.904;10.738;2023-02-13T14:25:50;1.70;;;1.13;;
74293;SDS011;64044;59.904;10.738;2023-02-13T14:28:34;2.40;;;1.00;;
74293;SDS011;64044;59.904;10.738;2023-02-13T14:31:06;5.93;;;2.05;;
74293;SDS011;64044;59.904;10.738;2023-02-13T14:33:53;1.98;;;1.63;;
74293;SDS011;64044;59.904;10.738;2023-02-13T14:36:34;2.40;;;1.52;;
74293;SDS011;64044;59.904;10.738;2023-02-13T14:39:07;2.00;;;1.30;;
74293;SDS011;64044;59.904;10.738;2023-02-13T14:44:19;3.17;;;1.40;;
74293;SDS011;64044;59.904;10.738;2023-02-13T14:50:00;6.93;;;5.15;;
74293;SDS011;64044;59.904;10.738;2023-02-13T14:52:32;6.35;;;3.42;;
74293;SDS011;64044;59.904;10.738;2023-02-13T14:55:02;4.47;;;2.03;;
74293;SDS011;64044;59.904;10.738;2023-02-13T15:05:53;0.80;;;0.80;;
74293;SDS011;64044;59.904;10.738;2023-02-13T15:08:23;2.55;;;1.00;;
74293;SDS011;64044;59.904;10.738;2023-02-13T15:10:53;2.50;;;0.80;;
74293;SDS011;64044;59.904;10.738;2023-02-13T15:13:24;0.50;;;0.50;;
74293;SDS011;64044;59.904;10.738;2023-02-13T15:16:15;1.15;;;0.75;;
74293;SDS011;64044;59.904;10.738;2023-02-13T15:18:47;1.10;;;0.90;;
74293;SDS011;64044;59.904;10.738;2023-02-13T15:21:19;1.85;;;0.75;;
74293;SDS011;64044;59.904;10.738;2023-02-13T15:23:48;2.70;;;2.00;;
74293;SDS011;64044;59.904;10.738;2023-02-13T15:26:20;2.15;;;1.15;;
74293;SDS011;64044;59.904;10.738;2023-02-13T15:31:50;1.10;;;0.93;;
74293;SDS011;64044;59.904;10.738;2023-02-13T15:34:24;2.40;;;1.30;;
74293;SDS011;64044;59.904;10.738;2023-02-13T15:36:51;1.30;;;0.73;;
74293;SDS011;64044;59.904;10.738;2023-02-13T15:39:18;2.25;;;0.90;;
74293;SDS011;64044;59.904;10.738;2023-02-13T15:41:48;1.90;;;0.70;;
74293;SDS011;64044;59.904;10.738;2023-02-13T15:44:17;1.58;;;0.98;;
74293;SDS011;64044;59.904;10.738;2023-02-13T15:46:46;1.33;;;1.00;;
74293;SDS011;64044;59.904;10.738;2023-02-13T15:49:16;0.88;;;0.77;;
74293;SDS011;64044;59.904;10.738;2023-02-13T15:51:44;1.20;;;1.10;;
74293;SDS011;64044;59.904;10.738;2023-02-13T15:57:05;2.45;;;1.30;;
74293;SDS011;64044;59.904;10.738;2023-02-13T15:59:33;2.35;;;1.13;;
74293;SDS011;64044;59.904;10.738;2023-02-13T16:02:02;2.97;;;1.60;;
74293;SDS011;64044;59.904;10.738;2023-02-13T16:04:29;5.30;;;2.40;;
74293;SDS011;64044;59.904;10.738;2023-02-13T16:06:56;1.63;;;1.00;;
74293;SDS011;64044;59.904;10.738;2023-02-13T16:09:29;1.30;;;0.90;;
74293;SDS011;64044;59.904;10.738;2023-02-13T16:12:00;2.40;;;0.95;;
74293;SDS011;64044;59.904;10.738;2023-02-13T16:14:29;1.17;;;0.80;;
74293;SDS011;64044;59.904;10.738;2023-02-13T16:17:05;16.35;;;5.95;;
74293;SDS011;64044;59.904;10.738;2023-02-13T16:19:58;31.95;;;11.10;;
74293;SDS011;64044;59.904;10.738;2023-02-13T16:27:41;11.98;;;7.05;;
74293;SDS011;64044;59.904;10.738;2023-02-13T16:30:17;13.38;;;6.15;;
74293;SDS011;64044;59.904;10.738;2023-02-13T16:35:43;13.18;;;4.95;;
74293;SDS011;64044;59.904;10.738;2023-02-13T16:40:47;10.15;;;3.28;;
74293;SDS011;64044;59.904;10.738;2023-02-13T16:48:36;8.88;;;3.60;;
74293;SDS011;64044;59.904;10.738;2023-02-13T16:51:02;11.75;;;3.63;;
74293;SDS011;64044;59.904;10.738;2023-02-13T16:53:28;5.60;;;2.40;;
74293;SDS011;64044;59.904;10.738;2023-02-13T16:56:00;4.20;;;2.10;;
74293;SDS011;64044;59.904;10.738;2023-02-13T16:58:33;10.30;;;2.33;;
74293;SDS011;64044;59.904;10.738;2023-02-13T17:00:59;17.50;;;5.13;;
74293;SDS011;64044;59.904;10.738;2023-02-13T17:03:27;17.73;;;5.10;;
74293;SDS011;64044;59.904;10.738;2023-02-13T17:05:53;14.85;;;4.18;;
74293;SDS011;64044;59.904;10.738;2023-02-13T17:08:21;6.75;;;2.92;;
74293;SDS011;64044;59.904;10.738;2023-02-13T17:11:00;4.20;;;1.85;;
74293;SDS011;64044;59.904;10.738;2023-02-13T17:13:28;12.93;;;2.92;;
74293;SDS011;64044;59.904;10.738;2023-02-13T17:15:54;4.80;;;2.15;;
74293;SDS011;64044;59.904;10.738;2023-02-13T17:18:20;7.38;;;2.30;;
74293;SDS011;64044;59.904;10.738;2023-02-13T17:20:46;3.92;;;1.38;;
74293;SDS011;64044;59.904;10.738;2023-02-13T17:23:15;4.85;;;1.85;;
74293;SDS011;64044;59.904;10.738;2023-02-13T17:25:45;3.95;;;1.40;;
74293;SDS011;64044;59.904;10.738;2023-02-13T17:28:13;4.68;;;1.58;;
74293;SDS011;64044;59.904;10.738;2023-02-13T17:30:45;7.60;;;1.65;;
74293;SDS011;64044;59.904;10.738;2023-02-13T17:33:13;5.32;;;1.35;;
74293;SDS011;64044;59.904;10.738;2023-02-13T17:35:45;12.80;;;4.45;;
74293;SDS011;64044;59.904;10.738;2023-02-13T17:38:11;45.85;;;13.73;;
74293;SDS011;64044;59.904;10.738;2023-02-13T17:40:37;25.65;;;6.30;;
74293;SDS011;64044;59.904;10.738;2023-02-13T17:43:04;10.98;;;4.28;;
74293;SDS011;64044;59.904;10.738;2023-02-13T17:45:31;14.77;;;3.72;;
74293;SDS011;64044;59.904;10.738;2023-02-13T17:47:58;13.98;;;5.40;;
74293;SDS011;64044;59.904;10.738;2023-02-13T17:50:24;22.38;;;5.22;;
74293;SDS011;64044;59.904;10.738;2023-02-13T17:52:51;14.73;;;5.30;;
74293;SDS011;64044;59.904;10.738;2023-02-13T17:57:50;16.95;;;6.70;;
74293;SDS011;64044;59.904;10.738;2023-02-13T18:00:18;15.65;;;6.53;;
74293;SDS011;64044;59.904;10.738;2023-02-13T18:02:45;14.88;;;5.50;;
74293;SDS011;64044;59.904;10.738;2023-02-13T18:05:12;21.17;;;7.35;;
74293;SDS011;64044;59.904;10.738;2023-02-13T18:07:39;15.75;;;5.93;;
74293;SDS011;64044;59.904;10.738;2023-02-13T18:10:10;16.75;;;4.50;;
74293;SDS011;64044;59.904;10.738;2023-02-13T18:12:41;11.05;;;4.40;;
74293;SDS011;64044;59.904;10.738;2023-02-13T18:15:08;14.80;;;4.85;;
74293;SDS011;64044;59.904;10.738;2023-02-13T18:17:34;14.68;;;5.57;;
74293;SDS011;64044;59.904;10.738;2023-02-13T18:20:01;7.65;;;3.00;;
74293;SDS011;64044;59.904;10.738;2023-02-13T18:22:27;4.70;;;2.00;;
74293;SDS011;64044;59.904;10.738;2023-02-13T18:24:53;8.15;;;2.92;;
74293;SDS011;64044;59.904;10.738;2023-02-13T18:27:18;12.80;;;4.60;;
74293;SDS011;64044;59.904;10.738;2023-02-13T18:29:44;17.50;;;5.22;;
74293;SDS011;64044;59.904;10.738;2023-02-13T18:32:10;8.38;;;3.08;;
74293;SDS011;64044;59.904;10.738;2023-02-13T18:34:36;5.30;;;1.73;;
74293;SDS011;64044;59.904;10.738;2023-02-13T18:37:03;5.03;;;1.67;;
74293;SDS011;64044;59.904;10.738;2023-02-13T18:39:29;2.15;;;1.50;;
74293;SDS011;64044;59.904;10.738;2023-02-13T18:41:55;2.40;;;1.45;;
74293;SDS011;64044;59.904;10.738;2023-02-13T18:44:20;3.05;;;1.25;;
74293;SDS011;64044;59.904;10.738;2023-02-13T18:46:46;15.93;;;5.82;;
74293;SDS011;64044;59.904;10.738;2023-02-13T18:49:12;32.03;;;9.82;;